Terminal Aerodrome Forecast
Issued by NWS Corpus Christi, TX

Home | Current Version | Previous Version | Text Only | Print | Product List | Glossary On
Versions: 1 2 3 4 5 6 7 8 9 10 11 12 13 14
000
FTUS44 KCRP 230500
TAFVCT
TAF
KVCT 230539Z 2306/2406 15006KT P6SM SKC
     FM230800 VRB03KT 5SM BR FEW015
      TEMPO 2310/2312 1SM BR
     FM231500 17010KT P6SM SCT030
     FM231900 15011G17KT P6SM SKC
     FM240300 15005KT P6SM SKC=

USA.gov is the U.S. government's official web portal to all federal, state and local government web resources and services.